Time;durP1;ratioP1;P1;durP2;ratioP2;P2;SDS_P1;SDS_P2;PMS_P1;PMS_P2;Temp;Humidity;BMP_temperature;BMP_pressure;BME280_temperature;BME280_humidity;BME280_pressure;Samples;Min_cycle;Max_cycle;Signal;HPM_P1;HPM_P2
2023/06/20 00:00:51;;;;;;;10.20;7.43;;;22.10;63.40;;;;;;5052102;28;20024;-54
2023/06/20 00:03:17;;;;;;;10.65;8.68;;;22.10;63.10;;;;;;5052008;28;20076;-54
2023/06/20 00:05:44;;;;;;;10.98;8.27;;;22.00;62.90;;;;;;5051740;28;20082;-52
2023/06/20 00:08:09;;;;;;;10.82;8.27;;;21.90;62.80;;;;;;5052282;28;20032;-52
2023/06/20 00:10:35;;;;;;;10.70;7.90;;;22.00;63.60;;;;;;5051824;28;20496;-54
2023/06/20 00:13:01;;;;;;;9.50;7.10;;;21.90;62.80;;;;;;5051939;28;20033;-54
2023/06/20 00:15:27;;;;;;;10.43;6.93;;;21.90;63.10;;;;;;5051951;28;20479;-54
2023/06/20 00:17:53;;;;;;;11.48;6.95;;;21.90;63.50;;;;;;5051711;28;20057;-54
2023/06/20 00:20:19;;;;;;;12.45;7.13;;;21.80;64.00;;;;;;5051665;28;20519;-54
2023/06/20 00:22:45;;;;;;;8.55;7.25;;;21.80;64.60;;;;;;5051647;28;20029;-54
2023/06/20 00:25:11;;;;;;;9.48;7.38;;;21.80;65.10;;;;;;5051516;28;20055;-53
2023/06/20 00:27:37;;;;;;;11.00;7.45;;;21.80;65.40;;;;;;5051207;28;20074;-54
2023/06/20 00:30:03;;;;;;;9.63;6.20;;;21.80;65.70;;;;;;5051531;28;20071;-54
2023/06/20 00:32:29;;;;;;;9.55;6.75;;;21.80;65.90;;;;;;5051334;28;20037;-51
2023/06/20 00:34:58;;;;;;;8.88;6.65;;;21.80;65.80;;;;;;5051479;28;20086;-54
2023/06/20 00:37:25;;;;;;;8.25;6.80;;;21.80;66.10;;;;;;5051346;28;20021;-54
2023/06/20 00:39:50;;;;;;;7.82;6.65;;;21.80;66.20;;;;;;5051219;28;20507;-53
2023/06/20 00:42:20;;;;;;;12.35;7.35;;;21.80;66.40;;;;;;5051355;28;20036;-53
2023/06/20 00:44:46;;;;;;;9.13;7.03;;;21.80;66.70;;;;;;5051527;28;20116;-54
2023/06/20 00:47:16;;;;;;;10.38;7.15;;;21.80;66.90;;;;;;5051176;28;20112;-52
2023/06/20 00:49:44;;;;;;;9.18;7.60;;;21.80;67.00;;;;;;5051430;28;20114;-53
2023/06/20 00:52:11;;;;;;;8.95;7.35;;;21.80;67.30;;;;;;5050540;28;20025;-54
2023/06/20 00:54:37;;;;;;;9.20;7.63;;;21.80;67.70;;;;;;5051093;28;20392;-54
2023/06/20 00:57:03;;;;;;;8.70;7.10;;;21.70;68.20;;;;;;5051191;28;20025;-48
2023/06/20 00:59:29;;;;;;;8.35;7.07;;;21.80;68.60;;;;;;5051471;28;20037;-54
2023/06/20 01:01:55;;;;;;;10.43;8.15;;;21.80;69.00;;;;;;5051024;28;20029;-54
2023/06/20 01:04:21;;;;;;;9.05;7.78;;;21.80;69.10;;;;;;5050994;28;20036;-54
2023/06/20 01:07:30;;;;;;;10.02;7.68;;;21.80;69.20;;;;;;5051011;28;20071;-54
2023/06/20 01:10:23;;;;;;;9.93;7.78;;;21.80;68.80;;;;;;4950729;28;20039;-54
2023/06/20 01:13:19;;;;;;;9.52;7.80;;;21.80;69.20;;;;;;5033140;28;20029;-54
2023/06/20 01:16:02;;;;;;;11.93;7.60;;;21.70;69.50;;;;;;5050376;28;20143;-53
2023/06/20 01:18:48;;;;;;;9.90;8.40;;;21.70;69.70;;;;;;5050629;28;20056;-54
2023/06/20 01:21:25;;;;;;;10.75;8.15;;;21.60;70.00;;;;;;5050928;28;20501;-53
2023/06/20 01:23:59;;;;;;;10.38;7.55;;;21.60;70.10;;;;;;5050900;28;20017;-54
2023/06/20 01:26:45;;;;;;;9.32;7.57;;;21.60;70.40;;;;;;5051093;28;20103;-54
2023/06/20 01:29:20;;;;;;;9.63;7.65;;;21.50;70.40;;;;;;5050887;28;20053;-53
2023/06/20 01:31:54;;;;;;;9.90;8.02;;;21.50;70.60;;;;;;5050994;28;20036;-52
2023/06/20 01:34:27;;;;;;;9.93;8.43;;;21.40;70.80;;;;;;5050681;28;20467;-54
2023/06/20 01:37:01;;;;;;;8.35;7.53;;;21.40;71.10;;;;;;5050874;28;20029;-53
2023/06/20 01:39:36;;;;;;;10.30;8.52;;;21.30;71.50;;;;;;5050851;28;20033;-54
2023/06/20 01:42:04;;;;;;;10.75;9.00;;;21.30;71.40;;;;;;5054529;28;20155;-53
2023/06/20 01:44:32;;;;;;;10.13;8.15;;;21.30;71.70;;;;;;5054493;28;20048;-53
2023/06/20 01:46:59;;;;;;;8.18;7.38;;;21.30;72.00;;;;;;5054448;28;20040;-52
2023/06/20 01:49:26;;;;;;;10.38;8.65;;;21.30;72.10;;;;;;5054347;28;20036;-53
2023/06/20 01:51:56;;;;;;;10.55;8.10;;;21.30;72.30;;;;;;5054283;28;20029;-54
2023/06/20 01:54:27;;;;;;;9.43;8.43;;;21.30;72.40;;;;;;5054334;28;20036;-51
2023/06/20 01:56:57;;;;;;;9.23;8.10;;;21.30;72.30;;;;;;5054291;28;20031;-54
2023/06/20 01:59:24;;;;;;;12.63;8.88;;;21.40;72.60;;;;;;5054309;28;20094;-53
2023/06/20 02:01:52;;;;;;;10.27;8.30;;;21.40;72.60;;;;;;5054079;28;20032;-49
2023/06/20 02:04:18;;;;;;;11.80;8.60;;;21.40;73.20;;;;;;5054110;28;20033;-52
2023/06/20 02:06:46;;;;;;;10.20;8.43;;;21.40;72.70;;;;;;5054103;28;20017;-54
2023/06/20 02:09:13;;;;;;;10.13;8.65;;;21.40;72.70;;;;;;5054060;28;20484;-54
2023/06/20 02:11:39;;;;;;;10.35;8.52;;;21.40;72.90;;;;;;5054033;28;20021;-54
2023/06/20 02:14:06;;;;;;;9.93;8.93;;;21.40;72.90;;;;;;5053933;28;20021;-54
2023/06/20 02:16:36;;;;;;;9.85;8.77;;;21.40;73.00;;;;;;5053430;28;20029;-54
2023/06/20 02:19:03;;;;;;;10.18;8.25;;;21.40;73.00;;;;;;5053757;28;20032;-52
2023/06/20 02:21:32;;;;;;;11.07;8.95;;;21.50;73.30;;;;;;5053753;28;20158;-51
2023/06/20 02:24:00;;;;;;;13.57;9.15;;;21.50;73.60;;;;;;5054086;28;20052;-54
2023/06/20 02:26:31;;;;;;;10.13;8.93;;;21.60;73.40;;;;;;5053938;28;20043;-54
2023/06/20 02:29:03;;;;;;;12.52;8.57;;;21.60;73.60;;;;;;5053966;28;20033;-54
2023/06/20 02:31:32;;;;;;;11.77;9.23;;;21.60;73.40;;;;;;5053536;28;20078;-51
2023/06/20 02:34:01;;;;;;;13.55;8.95;;;21.70;73.40;;;;;;5053622;28;20025;-54
2023/06/20 02:36:29;;;;;;;9.98;8.38;;;21.70;73.40;;;;;;5053299;28;20079;-54
2023/06/20 02:38:56;;;;;;;11.48;8.85;;;21.70;73.50;;;;;;5053635;28;20083;-54
2023/06/20 02:41:22;;;;;;;12.88;9.02;;;21.80;73.60;;;;;;5053227;28;20132;-54
2023/06/20 02:43:48;;;;;;;11.10;8.68;;;21.80;73.60;;;;;;5053283;28;20354;-54
2023/06/20 02:46:41;;;;;;;21.02;10.07;;;21.80;73.70;;;;;;5053454;28;20110;-54
2023/06/20 02:49:45;;;;;;;10.52;8.35;;;21.80;73.70;;;;;;5053285;28;20057;-54
2023/06/20 02:52:20;;;;;;;17.83;9.18;;;21.90;73.60;;;;;;5053159;28;20025;-54
2023/06/20 02:55:23;;;;;;;24.67;10.45;;;22.00;74.10;;;;;;5053517;28;20052;-52
2023/06/20 02:57:54;;;;;;;17.38;9.63;;;22.00;73.90;;;;;;5053339;28;20029;-53
2023/06/20 03:00:21;;;;;;;13.70;9.05;;;22.10;73.90;;;;;;5053285;28;20025;-50
2023/06/20 03:02:53;;;;;;;11.20;8.57;;;22.10;73.40;;;;;;5053091;28;20025;-53
2023/06/20 03:05:22;;;;;;;10.88;9.10;;;22.20;73.20;;;;;;5052961;28;20522;-51
2023/06/20 03:07:48;;;;;;;10.30;8.55;;;22.20;72.90;;;;;;5051864;28;20538;-53
2023/06/20 03:10:15;;;;;;;11.43;9.15;;;22.30;72.40;;;;;;5052618;28;20021;-54
2023/06/20 03:12:40;;;;;;;10.93;8.75;;;22.40;71.70;;;;;;5052475;28;20021;-54
2023/06/20 03:15:07;;;;;;;15.10;9.77;;;22.40;71.20;;;;;;5051130;28;20050;-54
2023/06/20 03:17:35;;;;;;;12.07;9.63;;;22.50;70.70;;;;;;5052673;28;20472;-53
2023/06/20 03:20:09;;;;;;;17.17;9.95;;;22.60;70.40;;;;;;5051203;28;20021;-54
2023/06/20 03:22:35;;;;;;;13.82;10.90;;;22.60;70.00;;;;;;5050642;28;20029;-51
2023/06/20 03:25:01;;;;;;;12.32;9.70;;;22.70;69.80;;;;;;5049055;28;20337;-53
2023/06/20 03:27:27;;;;;;;13.10;10.13;;;22.70;69.40;;;;;;5049069;28;20024;-53
2023/06/20 03:29:52;;;;;;;14.02;9.88;;;22.80;69.10;;;;;;5048939;28;20075;-52
2023/06/20 03:32:18;;;;;;;14.10;9.48;;;22.80;68.80;;;;;;5048652;28;20558;-52
2023/06/20 03:34:44;;;;;;;16.48;11.52;;;23.00;69.60;;;;;;5048734;28;20021;-52
2023/06/20 03:37:10;;;;;;;16.15;12.48;;;23.20;69.50;;;;;;5049947;28;20029;-53
2023/06/20 03:39:36;;;;;;;16.75;11.90;;;23.60;68.80;;;;;;5051366;28;20028;-55
2023/06/20 03:42:01;;;;;;;16.42;11.25;;;24.10;68.50;;;;;;5052090;28;20096;-54
2023/06/20 03:44:27;;;;;;;14.90;10.98;;;24.60;67.50;;;;;;5052428;28;20029;-55
2023/06/20 03:46:53;;;;;;;16.20;11.38;;;25.20;66.10;;;;;;5052338;28;20032;-55
2023/06/20 03:49:18;;;;;;;14.82;10.30;;;25.80;65.00;;;;;;5052229;28;20087;-55
2023/06/20 03:51:44;;;;;;;16.98;11.40;;;26.60;63.60;;;;;;5052130;28;20033;-52
2023/06/20 03:54:09;;;;;;;19.52;12.27;;;27.40;62.60;;;;;;5052057;28;20033;-52
2023/06/20 03:56:35;;;;;;;15.02;11.98;;;28.20;61.00;;;;;;5052105;28;20039;-55
2023/06/20 03:59:01;;;;;;;14.65;12.05;;;29.00;59.50;;;;;;5051830;28;20040;-54
2023/06/20 04:01:26;;;;;;;15.40;11.25;;;29.70;58.20;;;;;;5051941;28;20036;-56
2023/06/20 04:03:54;;;;;;;14.77;10.75;;;30.40;56.90;;;;;;5051195;28;20056;-56
2023/06/20 04:06:19;;;;;;;12.82;10.73;;;31.10;55.70;;;;;;5051585;28;20488;-55
2023/06/20 04:08:45;;;;;;;13.32;10.27;;;31.70;54.70;;;;;;5051658;28;20078;-56
2023/06/20 04:11:11;;;;;;;12.23;9.77;;;32.30;53.40;;;;;;5051707;28;20035;-54
2023/06/20 04:13:36;;;;;;;11.70;9.52;;;32.90;52.40;;;;;;5052025;28;20036;-55
2023/06/20 04:16:02;;;;;;;14.23;10.40;;;33.40;51.60;;;;;;5051550;28;20024;-52
2023/06/20 04:18:28;;;;;;;13.57;10.18;;;33.90;50.30;;;;;;5051633;28;20104;-56
2023/06/20 04:20:53;;;;;;;13.93;9.90;;;34.40;49.80;;;;;;5051570;28;20025;-56
2023/06/20 04:23:19;;;;;;;10.68;9.57;;;34.80;49.60;;;;;;5051879;28;20499;-56
2023/06/20 04:25:44;;;;;;;12.57;10.07;;;35.20;48.90;;;;;;5051663;28;20087;-56
2023/06/20 04:28:10;;;;;;;12.60;9.88;;;35.60;48.60;;;;;;5051575;28;20104;-56
2023/06/20 04:30:36;;;;;;;13.30;9.85;;;35.90;47.90;;;;;;5051460;28;20488;-56
2023/06/20 04:33:01;;;;;;;12.45;10.25;;;36.20;47.30;;;;;;5051627;28;20039;-56
2023/06/20 04:35:27;;;;;;;13.10;10.73;;;36.50;47.10;;;;;;5051478;28;20032;-56
2023/06/20 04:37:52;;;;;;;12.05;9.60;;;36.80;47.00;;;;;;5051568;28;20039;-54
2023/06/20 04:40:18;;;;;;;12.98;9.88;;;37.10;46.30;;;;;;5051155;28;20041;-53
2023/06/20 04:42:47;;;;;;;11.82;9.15;;;37.40;46.00;;;;;;5051257;28;20024;-56
2023/06/20 04:45:13;;;;;;;11.50;9.48;;;37.70;45.50;;;;;;5051352;28;20025;-54
2023/06/20 04:47:41;;;;;;;12.80;9.95;;;38.00;45.30;;;;;;5051235;28;20037;-55
2023/06/20 04:50:09;;;;;;;12.93;10.50;;;38.20;44.80;;;;;;5051408;28;20052;-55
2023/06/20 04:52:35;;;;;;;15.23;10.15;;;38.50;44.50;;;;;;5051021;28;20682;-56
2023/06/20 04:55:03;;;;;;;11.50;9.70;;;38.70;44.40;;;;;;5051106;28;20021;-56
2023/06/20 04:57:30;;;;;;;15.80;9.50;;;39.00;44.20;;;;;;5051139;28;20029;-56
2023/06/20 04:59:56;;;;;;;12.73;9.90;;;39.20;44.10;;;;;;5051262;28;20025;-56
2023/06/20 05:02:23;;;;;;;9.43;8.43;;;39.40;43.80;;;;;;5051273;28;20522;-55
2023/06/20 05:04:48;;;;;;;11.77;9.35;;;39.50;43.40;;;;;;5050994;28;20017;-57
2023/06/20 05:07:14;;;;;;;13.30;9.85;;;39.60;43.40;;;;;;5051030;28;20794;-57
2023/06/20 05:09:39;;;;;;;10.10;8.88;;;39.60;43.30;;;;;;5051245;28;20029;-57
2023/06/20 05:12:05;;;;;;;10.80;9.57;;;39.60;43.10;;;;;;5050975;28;20029;-56
2023/06/20 05:14:31;;;;;;;10.77;9.32;;;39.60;42.80;;;;;;5053137;28;20025;-57
2023/06/20 05:16:57;;;;;;;15.52;9.75;;;39.60;42.70;;;;;;5055240;28;20406;-56
2023/06/20 05:19:22;;;;;;;12.65;9.70;;;39.50;42.30;;;;;;5054413;28;20040;-56
2023/06/20 05:21:48;;;;;;;11.07;9.82;;;39.40;42.20;;;;;;5054820;28;20059;-54
2023/06/20 05:24:14;;;;;;;12.75;10.80;;;39.30;42.60;;;;;;5054824;28;20100;-56
2023/06/20 05:26:40;;;;;;;12.00;10.00;;;38.80;43.00;;;;;;5038849;28;20117;-56
2023/06/20 05:29:05;;;;;;;12.32;10.93;;;38.20;43.50;;;;;;5031044;28;20065;-54
2023/06/20 05:31:31;;;;;;;11.93;10.68;;;37.50;44.10;;;;;;5050268;28;20059;-55
2023/06/20 05:33:57;;;;;;;14.57;10.23;;;36.70;45.10;;;;;;5024592;28;20095;-55
2023/06/20 05:36:22;;;;;;;13.18;11.73;;;35.80;46.00;;;;;;5026544;28;20446;-53
2023/06/20 05:38:49;;;;;;;11.52;10.05;;;35.10;46.90;;;;;;5035360;28;20087;-50
2023/06/20 05:41:18;;;;;;;11.88;10.68;;;34.40;47.70;;;;;;5047548;28;20099;-53
2023/06/20 05:43:44;;;;;;;14.20;11.82;;;33.80;48.70;;;;;;5044546;28;20126;-56
2023/06/20 05:46:11;;;;;;;14.00;11.43;;;33.10;49.70;;;;;;5040878;28;20029;-56
2023/06/20 05:48:37;;;;;;;12.50;11.10;;;32.60;50.60;;;;;;5032492;28;20029;-54
2023/06/20 05:51:03;;;;;;;13.70;11.20;;;32.30;51.20;;;;;;5036173;28;20117;-56
2023/06/20 05:53:29;;;;;;;15.50;11.10;;;31.90;51.90;;;;;;5028376;28;20467;-55
2023/06/20 05:55:54;;;;;;;12.15;10.40;;;31.60;52.40;;;;;;5033102;28;20077;-55
2023/06/20 05:58:20;;;;;;;14.63;11.80;;;31.30;53.10;;;;;;5048792;28;20068;-55
2023/06/20 06:00:46;;;;;;;13.77;11.63;;;31.10;53.70;;;;;;5051380;28;20036;-56
2023/06/20 06:03:12;;;;;;;14.82;11.98;;;30.90;54.20;;;;;;5040773;28;20033;-55
2023/06/20 06:05:39;;;;;;;15.68;11.30;;;30.70;54.50;;;;;;5035411;28;20461;-53
2023/06/20 06:08:05;;;;;;;17.63;12.07;;;30.60;55.00;;;;;;5034120;28;20040;-56
2023/06/20 06:10:32;;;;;;;13.80;11.57;;;30.40;55.40;;;;;;5039710;28;20031;-55
2023/06/20 06:12:57;;;;;;;12.23;11.00;;;30.30;55.80;;;;;;5038846;28;20044;-56
2023/06/20 06:15:23;;;;;;;11.68;10.40;;;30.20;56.10;;;;;;5034827;28;20026;-55
2023/06/20 06:17:48;;;;;;;13.73;11.25;;;30.10;56.40;;;;;;5040501;28;20069;-56
2023/06/20 06:20:19;;;;;;;14.15;10.63;;;30.10;56.20;;;;;;5053006;28;20446;-53
2023/06/20 06:22:45;;;;;;;;;;;30.00;56.10;;;;;;5047586;28;20121;-55
2023/06/20 06:25:11;;;;;;;11.63;10.00;;;29.90;55.90;;;;;;5035379;28;19920;-52
2023/06/20 06:27:36;;;;;;;12.77;10.40;;;29.80;56.10;;;;;;5046736;28;20435;-54
2023/06/20 06:30:03;;;;;;;12.23;10.45;;;29.70;56.50;;;;;;5038893;28;20021;-52
2023/06/20 06:32:34;;;;;;;14.10;10.07;;;29.60;57.00;;;;;;5029281;28;20034;-55
2023/06/20 06:35:00;;;;;;;12.57;10.63;;;29.60;57.60;;;;;;5030859;28;20112;-55
2023/06/20 06:37:27;;;;;;;12.57;10.68;;;29.50;58.20;;;;;;5033816;28;20099;-54
2023/06/20 06:39:58;;;;;;;15.52;10.05;;;29.40;58.40;;;;;;5035674;28;20120;-55
2023/06/20 06:42:24;;;;;;;;;;;29.40;58.30;;;;;;5050483;28;20070;-55
2023/06/20 06:44:49;;;;;;;14.75;11.18;;;29.30;58.20;;;;;;5039685;28;19958;-55
2023/06/20 06:47:15;;;;;;;13.18;10.80;;;29.30;58.80;;;;;;5038195;28;20392;-53
2023/06/20 06:49:41;;;;;;;12.95;11.32;;;29.10;59.10;;;;;;5033985;28;20031;-56
2023/06/20 06:52:07;;;;;;;12.93;11.63;;;29.10;59.50;;;;;;5038803;28;20904;-55
2023/06/20 06:54:32;;;;;;;13.52;11.23;;;29.00;59.60;;;;;;5035233;28;20028;-53
2023/06/20 06:56:58;;;;;;;12.93;11.63;;;28.90;59.80;;;;;;5028103;28;20036;-55
2023/06/20 06:59:24;;;;;;;13.07;11.18;;;28.90;60.20;;;;;;5040615;28;20060;-55
2023/06/20 07:01:49;;;;;;;15.07;12.52;;;28.80;60.40;;;;;;5036769;28;20438;-56
2023/06/20 07:04:15;;;;;;;11.95;10.57;;;28.70;61.00;;;;;;5026735;28;20489;-52
2023/06/20 07:06:41;;;;;;;12.88;11.43;;;28.70;60.70;;;;;;5022697;28;20025;-54
2023/06/20 07:09:06;;;;;;;13.10;11.77;;;28.70;60.90;;;;;;5028175;28;20025;-56
2023/06/20 07:11:32;;;;;;;14.55;11.98;;;28.70;61.10;;;;;;5017034;28;20033;-53
2023/06/20 07:13:58;;;;;;;13.52;12.23;;;28.60;60.80;;;;;;5021729;28;20031;-56
2023/06/20 07:16:25;;;;;;;11.98;10.77;;;28.60;61.00;;;;;;5014360;28;20044;-49
2023/06/20 07:18:51;;;;;;;15.48;11.90;;;28.60;61.10;;;;;;5017196;28;20077;-55
2023/06/20 07:21:17;;;;;;;12.35;11.07;;;28.50;61.40;;;;;;5024312;28;20136;-49
2023/06/20 07:23:43;;;;;;;14.70;13.20;;;28.40;61.50;;;;;;5018825;28;20120;-49
2023/06/20 07:26:09;;;;;;;14.30;12.73;;;28.40;61.90;;;;;;5012642;28;20410;-56
2023/06/20 07:28:36;;;;;;;13.68;12.25;;;28.30;62.10;;;;;;5017427;28;20026;-52
2023/06/20 07:31:02;;;;;;;14.63;13.10;;;28.20;62.20;;;;;;5022550;28;20034;-56
2023/06/20 07:33:28;;;;;;;16.65;13.93;;;28.20;62.20;;;;;;5020375;28;20030;-57
2023/06/20 07:35:53;;;;;;;15.48;13.15;;;28.10;62.10;;;;;;5023804;28;20057;-56
2023/06/20 07:38:19;;;;;;;17.55;13.68;;;28.10;62.40;;;;;;5024572;28;20073;-55
2023/06/20 07:40:45;;;;;;;15.75;14.02;;;28.10;62.60;;;;;;5014087;28;20045;-53
2023/06/20 07:43:10;;;;;;;15.63;13.02;;;28.00;62.70;;;;;;5010442;28;20040;-56
2023/06/20 07:45:36;;;;;;;18.50;14.13;;;28.00;62.70;;;;;;5021116;28;20040;-52
2023/06/20 07:48:03;;;;;;;16.30;14.30;;;28.00;62.90;;;;;;5026415;28;20072;-50
2023/06/20 07:50:30;;;;;;;17.15;15.35;;;28.00;62.80;;;;;;5017400;28;20031;-55
2023/06/20 07:52:55;;;;;;;18.23;15.85;;;28.10;63.10;;;;;;5016867;28;20137;-56
2023/06/20 07:55:21;;;;;;;17.02;15.25;;;28.00;63.10;;;;;;5012104;28;20043;-55
2023/06/20 07:57:48;;;;;;;16.52;14.85;;;28.10;63.30;;;;;;5019474;28;20120;-56
2023/06/20 08:00:14;;;;;;;18.70;16.17;;;28.10;63.60;;;;;;5017223;28;20030;-56
2023/06/20 08:02:39;;;;;;;18.30;16.35;;;28.10;63.80;;;;;;5018017;28;20425;-57
2023/06/20 08:05:08;;;;;;;21.02;16.10;;;28.10;63.90;;;;;;5018543;28;20108;-56
2023/06/20 08:07:35;;;;;;;19.20;17.10;;;28.20;63.80;;;;;;5016884;28;20155;-55
2023/06/20 08:10:02;;;;;;;19.95;16.33;;;28.20;63.30;;;;;;5015002;28;20021;-57
2023/06/20 08:12:28;;;;;;;21.88;17.55;;;28.20;63.10;;;;;;5015009;28;20456;-52
2023/06/20 08:14:53;;;;;;;19.95;16.77;;;28.20;63.10;;;;;;5016354;28;20037;-56
2023/06/20 08:17:19;;;;;;;17.38;14.98;;;28.10;63.10;;;;;;5013687;28;20041;-56
2023/06/20 08:19:45;;;;;;;19.25;15.70;;;28.20;62.80;;;;;;5014220;28;20137;-52
2023/06/20 08:22:10;;;;;;;18.95;15.20;;;28.20;62.50;;;;;;5025568;28;20032;-57
2023/06/20 08:24:36;;;;;;;16.55;14.73;;;28.20;62.20;;;;;;5021151;28;20030;-57
2023/06/20 08:27:03;;;;;;;17.80;14.10;;;28.20;62.10;;;;;;5024031;28;20075;-54
2023/06/20 08:29:29;;;;;;;15.57;13.57;;;28.20;61.80;;;;;;5025526;28;20040;-57
2023/06/20 08:31:55;;;;;;;16.15;13.07;;;28.20;61.10;;;;;;5024017;28;20021;-57
2023/06/20 08:34:20;;;;;;;16.95;14.25;;;28.20;60.90;;;;;;5018115;28;20028;-57
2023/06/20 08:36:46;;;;;;;12.63;11.18;;;28.20;60.50;;;;;;5022302;28;20045;-56
2023/06/20 08:39:12;;;;;;;13.02;11.70;;;28.10;60.00;;;;;;5016130;28;20140;-55
2023/06/20 08:41:38;;;;;;;12.73;10.95;;;28.10;59.70;;;;;;5023273;28;20091;-58
2023/06/20 08:44:04;;;;;;;10.60;9.27;;;28.10;59.80;;;;;;5019430;28;20029;-56
2023/06/20 08:46:31;;;;;;;11.55;8.98;;;28.10;59.50;;;;;;5018164;28;20092;-55
2023/06/20 08:48:57;;;;;;;12.50;8.73;;;28.00;59.20;;;;;;5013830;28;20062;-56
2023/06/20 08:51:26;;;;;;;8.30;7.50;;;28.00;59.40;;;;;;5019827;28;20033;-54
2023/06/20 08:53:54;;;;;;;9.50;7.57;;;28.00;58.80;;;;;;5022652;28;20067;-54
2023/06/20 08:56:20;;;;;;;11.93;8.40;;;28.00;58.60;;;;;;5014119;28;20034;-56
2023/06/20 08:58:46;;;;;;;10.55;7.82;;;28.00;58.20;;;;;;5013187;28;20064;-52
2023/06/20 09:01:12;;;;;;;8.20;7.03;;;28.00;57.70;;;;;;5013569;28;20105;-52
2023/06/20 09:03:38;;;;;;;11.57;6.88;;;27.90;57.60;;;;;;5014017;28;20021;-56
2023/06/20 09:06:05;;;;;;;8.63;7.15;;;27.90;57.40;;;;;;5027558;28;20025;-56
2023/06/20 09:08:39;;;;;;;11.32;7.20;;;27.80;57.30;;;;;;5032618;28;20036;-56
2023/06/20 09:11:09;;;;;;;9.25;7.00;;;27.80;57.40;;;;;;5034238;28;20424;-56
2023/06/20 09:13:35;;;;;;;8.63;6.47;;;27.70;57.60;;;;;;5012066;28;20021;-54
2023/06/20 09:16:09;;;;;;;9.38;6.97;;;27.80;57.70;;;;;;5016346;28;20430;-56
2023/06/20 09:18:35;;;;;;;7.80;6.43;;;27.70;57.90;;;;;;5018889;28;20693;-55
2023/06/20 09:21:02;;;;;;;9.05;7.50;;;27.70;58.00;;;;;;5023789;28;20087;-51
2023/06/20 09:23:32;;;;;;;9.38;7.20;;;27.70;58.30;;;;;;5014644;28;20076;-54
2023/06/20 09:26:15;;;;;;;9.05;7.60;;;27.60;58.60;;;;;;5018372;28;20034;-57
2023/06/20 09:28:41;;;;;;;9.18;7.03;;;27.60;58.90;;;;;;5023519;28;20029;-57
2023/06/20 09:31:07;;;;;;;9.77;7.57;;;27.60;59.40;;;;;;5020980;28;20040;-55
2023/06/20 09:33:36;;;;;;;11.02;8.55;;;27.50;59.80;;;;;;5025889;28;20104;-57
2023/06/20 09:36:16;;;;;;;8.60;7.53;;;27.50;60.40;;;;;;5029974;28;20025;-57
2023/06/20 09:38:51;;;;;;;9.13;6.88;;;27.50;60.70;;;;;;5040924;28;20392;-57
2023/06/20 09:41:17;;;;;;;8.13;6.97;;;27.50;61.20;;;;;;5024727;28;20456;-56
2023/06/20 09:43:46;;;;;;;8.32;6.40;;;27.50;60.70;;;;;;5018517;28;20037;-57
2023/06/20 09:46:12;;;;;;;7.93;5.75;;;27.50;60.40;;;;;;5020172;28;20034;-56
2023/06/20 09:48:39;;;;;;;6.80;6.07;;;27.50;60.00;;;;;;5029675;28;20034;-56
2023/06/20 09:51:07;;;;;;;8.93;5.88;;;27.50;59.20;;;;;;5001552;28;20048;-57
2023/06/20 09:53:44;;;;;;;8.05;6.00;;;27.40;58.90;;;;;;5019522;28;20428;-55
2023/06/20 09:56:11;;;;;;;8.65;6.78;;;27.50;59.10;;;;;;5024722;28;20036;-54
2023/06/20 09:58:43;;;;;;;7.18;6.07;;;27.40;58.90;;;;;;5030662;28;20104;-57
2023/06/20 10:01:12;;;;;;;9.52;6.32;;;27.40;58.70;;;;;;5027715;28;20076;-59
2023/06/20 10:03:38;;;;;;;7.00;5.82;;;27.50;58.10;;;;;;5023872;28;20033;-56
2023/06/20 10:06:04;;;;;;;10.27;6.05;;;27.50;58.10;;;;;;5038686;28;20393;-51
2023/06/20 10:08:30;;;;;;;7.72;5.53;;;27.50;58.20;;;;;;5026856;28;20029;-58
2023/06/20 10:10:56;;;;;;;6.53;5.90;;;27.40;58.40;;;;;;5020539;28;20440;-56
2023/06/20 10:13:22;;;;;;;7.63;5.60;;;27.40;58.80;;;;;;5027526;28;20025;-57
2023/06/20 10:15:48;;;;;;;7.60;6.00;;;27.40;58.70;;;;;;5019732;28;20180;-57
2023/06/20 10:18:32;;;;;;;8.35;6.13;;;27.40;58.80;;;;;;5024129;28;20710;-56
2023/06/20 10:21:01;;;;;;;7.65;5.90;;;27.40;58.70;;;;;;5024747;28;20381;-55
2023/06/20 10:23:31;;;;;;;8.38;6.13;;;27.40;58.80;;;;;;5027547;28;20383;-58
2023/06/20 10:26:01;;;;;;;6.70;5.93;;;27.30;59.00;;;;;;5031713;28;20112;-58
2023/06/20 10:28:27;;;;;;;7.75;5.82;;;27.30;59.50;;;;;;5035151;28;20033;-58
2023/06/20 10:30:57;;;;;;;7.68;6.13;;;27.30;59.90;;;;;;5052124;28;20100;-58
2023/06/20 10:33:33;;;;;;;6.72;5.90;;;27.30;59.80;;;;;;5011566;28;20022;-57
2023/06/20 10:36:04;;;;;;;10.48;5.95;;;27.30;60.20;;;;;;5021394;28;21212;-53
2023/06/20 10:38:32;;;;;;;7.47;5.90;;;27.30;59.80;;;;;;5030862;28;20424;-56
2023/06/20 10:41:22;;;;;;;6.78;5.93;;;27.30;59.50;;;;;;5017096;28;20525;-56
2023/06/20 10:44:08;;;;;;;;;;;27.30;59.70;;;;;;5009025;28;20377;-54
2023/06/20 10:46:37;;;;;;;7.50;5.70;;;27.30;59.50;;;;;;5007370;28;19914;-56
2023/06/20 10:49:06;;;;;;;7.78;5.80;;;27.30;59.50;;;;;;5005925;28;20448;-56
2023/06/20 10:51:57;;;;;;;8.00;5.60;;;27.40;59.30;;;;;;5009389;28;20029;-52
2023/06/20 10:54:31;;;;;;;7.25;5.53;;;27.30;59.00;;;;;;5009379;28;20164;-56
2023/06/20 10:56:57;;;;;;;7.25;6.30;;;27.30;59.00;;;;;;5007641;28;20065;-56
2023/06/20 10:59:22;;;;;;;6.30;5.60;;;27.40;59.10;;;;;;5004444;28;20125;-56
2023/06/20 11:01:48;;;;;;;7.40;5.88;;;27.40;59.30;;;;;;5004628;28;20034;-56
2023/06/20 11:04:15;;;;;;;6.80;5.28;;;27.40;58.50;;;;;;5007871;28;20068;-55
2023/06/20 11:06:41;;;;;;;7.65;5.57;;;27.40;58.60;;;;;;4999088;28;20036;-54
2023/06/20 11:09:21;;;;;;;7.90;5.70;;;27.40;58.20;;;;;;4998148;28;20048;-56
2023/06/20 11:11:47;;;;;;;7.28;5.75;;;27.50;58.10;;;;;;5004203;28;20033;-53
2023/06/20 11:14:15;;;;;;;7.28;5.57;;;27.50;58.00;;;;;;5000444;28;20366;-56
2023/06/20 11:16:42;;;;;;;7.03;5.88;;;27.50;57.80;;;;;;5000679;28;20044;-56
2023/06/20 11:19:07;;;;;;;6.75;5.32;;;27.50;57.60;;;;;;4994792;28;20034;-54
2023/06/20 11:21:34;;;;;;;6.93;5.78;;;27.50;58.00;;;;;;5010836;28;20030;-56
2023/06/20 11:24:00;;;;;;;6.88;5.85;;;27.50;58.00;;;;;;4998517;28;20026;-58
2023/06/20 11:26:33;;;;;;;8.88;5.60;;;27.50;58.30;;;;;;5001026;28;20382;-52
2023/06/20 11:29:04;;;;;;;5.82;5.20;;;27.50;58.00;;;;;;4997403;28;20544;-58
2023/06/20 11:31:30;;;;;;;;;;;27.50;57.30;;;;;;5008127;28;20397;-58
2023/06/20 11:34:06;;;;;;;5.72;5.13;;;27.50;57.60;;;;;;5004090;28;19925;-56
2023/06/20 11:36:33;;;;;;;9.15;5.63;;;27.50;57.40;;;;;;5005575;28;20024;-57
2023/06/20 11:39:11;;;;;;;6.03;5.43;;;27.50;57.10;;;;;;5003571;28;20116;-57
2023/06/20 11:41:36;;;;;;;8.48;6.00;;;27.50;57.20;;;;;;5010729;28;20041;-58
2023/06/20 11:44:04;;;;;;;7.75;6.00;;;27.50;57.60;;;;;;5025362;28;20029;-55
2023/06/20 11:46:30;;;;;;;5.82;5.22;;;27.50;58.10;;;;;;5030448;28;20039;-57
2023/06/20 11:48:56;;;;;;;7.78;6.03;;;27.40;58.30;;;;;;5018066;28;20572;-57
2023/06/20 11:51:24;;;;;;;7.97;5.78;;;27.40;58.40;;;;;;5018780;28;20025;-52
2023/06/20 11:54:12;;;;;;;6.88;5.63;;;27.40;58.20;;;;;;5023212;28;20686;-59
2023/06/20 11:56:38;;;;;;;7.60;5.88;;;27.40;58.50;;;;;;5017209;28;20073;-52
2023/06/20 11:59:04;;;;;;;6.72;5.70;;;27.30;58.50;;;;;;5027049;28;20081;-56
2023/06/20 12:01:32;;;;;;;8.13;5.80;;;27.30;58.20;;;;;;5023612;28;20041;-56
2023/06/20 12:04:21;;;;;;;9.63;6.53;;;27.30;58.30;;;;;;5020843;28;20059;-57
2023/06/20 12:06:53;;;;;;;7.00;5.35;;;27.30;57.80;;;;;;4995121;28;20041;-57
2023/06/20 12:09:19;;;;;;;7.65;5.93;;;27.20;57.70;;;;;;5024101;28;20037;-57
2023/06/20 12:11:49;;;;;;;7.95;6.22;;;27.20;57.80;;;;;;5019770;28;20045;-55
2023/06/20 12:14:18;;;;;;;6.93;6.03;;;27.20;57.90;;;;;;5022108;28;20030;-55
2023/06/20 12:16:44;;;;;;;6.28;5.68;;;27.20;57.90;;;;;;5015688;28;20056;-56
2023/06/20 12:19:10;;;;;;;7.43;6.03;;;27.20;57.90;;;;;;5021747;28;20492;-52
2023/06/20 12:21:38;;;;;;;7.93;5.90;;;27.20;58.00;;;;;;5018786;28;20055;-54
2023/06/20 12:24:08;;;;;;;10.00;6.07;;;27.20;57.70;;;;;;5018434;28;20025;-57
2023/06/20 12:26:34;;;;;;;7.40;6.38;;;27.10;57.30;;;;;;5022821;28;20033;-56
2023/06/20 12:28:59;;;;;;;7.03;5.63;;;27.10;57.20;;;;;;5020319;28;20152;-54
2023/06/20 12:31:25;;;;;;;8.80;6.10;;;27.20;57.40;;;;;;5020083;28;20045;-51
2023/06/20 12:33:51;;;;;;;8.57;6.15;;;27.20;57.50;;;;;;5020931;28;20029;-55
2023/06/20 12:36:17;;;;;;;7.70;6.72;;;27.20;57.80;;;;;;5017924;28;20117;-50
2023/06/20 12:38:44;;;;;;;6.65;5.88;;;27.20;57.80;;;;;;5021072;28;20084;-55
2023/06/20 12:41:12;;;;;;;6.68;5.93;;;27.20;57.90;;;;;;5017481;28;20045;-57
2023/06/20 12:43:38;;;;;;;8.27;6.25;;;27.20;58.00;;;;;;5018493;28;20417;-55